Time;durP1;ratioP1;P1;durP2;ratioP2;P2;SDS_P1;SDS_P2;PMS_P1;PMS_P2;Temp;Humidity;BMP_temperature;BMP_pressure;BME280_temperature;BME280_humidity;BME280_pressure;Samples;Min_cycle;Max_cycle;Signal;HPM_P1;HPM_P2
2021/03/02 00:01:33;;;;;;;12.90;8.40;;;3.50;99.90;;;;;;5112343;28;20198;-74
2021/03/02 00:03:59;;;;;;;11.73;8.63;;;3.50;99.90;;;;;;5112043;28;20656;-74
2021/03/02 00:06:27;;;;;;;12.37;8.43;;;3.40;99.90;;;;;;5112362;27;20435;-75
2021/03/02 00:08:54;;;;;;;9.80;8.20;;;3.30;99.90;;;;;;5111878;28;20260;-74
2021/03/02 00:11:20;;;;;;;11.87;7.80;;;3.30;99.90;;;;;;5112261;28;20236;-75
2021/03/02 00:13:46;;;;;;;9.03;7.60;;;3.20;99.90;;;;;;5112066;28;20210;-74
2021/03/02 00:16:14;;;;;;;9.27;7.73;;;3.20;99.90;;;;;;5111979;28;20234;-74
2021/03/02 00:18:46;;;;;;;9.93;7.67;;;3.30;99.90;;;;;;5112008;27;20225;-74
2021/03/02 00:21:17;;;;;;;10.37;7.93;;;3.30;99.90;;;;;;5112099;28;20191;-74
2021/03/02 00:23:47;;;;;;;11.10;8.03;;;3.30;99.90;;;;;;5111682;28;20644;-74
2021/03/02 00:26:18;;;;;;;13.90;8.60;;;3.20;99.90;;;;;;5112183;28;20229;-74
2021/03/02 00:28:48;;;;;;;10.60;7.33;;;3.20;99.90;;;;;;5111685;28;20638;-74
2021/03/02 00:31:15;;;;;;;10.03;8.40;;;3.20;99.90;;;;;;5111933;28;20206;-74
2021/03/02 00:33:45;;;;;;;11.73;9.03;;;3.20;99.90;;;;;;5111813;28;20214;-74
2021/03/02 00:36:11;;;;;;;10.63;8.83;;;3.20;99.90;;;;;;5111682;28;20605;-75
2021/03/02 00:38:37;;;;;;;10.80;8.57;;;3.20;99.90;;;;;;5111621;28;20233;-75
2021/03/02 00:41:04;;;;;;;10.60;8.27;;;3.10;99.90;;;;;;5111704;28;20201;-74
2021/03/02 00:43:30;;;;;;;11.30;8.30;;;3.10;99.90;;;;;;5111299;28;20220;-74
2021/03/02 00:45:56;;;;;;;9.73;7.80;;;3.00;99.90;;;;;;5111169;28;20253;-74
2021/03/02 00:48:23;;;;;;;10.57;7.83;;;3.10;99.90;;;;;;5111555;28;20244;-74
2021/03/02 00:50:49;;;;;;;10.47;7.73;;;3.10;99.90;;;;;;5111244;28;20202;-74
2021/03/02 00:53:15;;;;;;;9.90;7.80;;;3.00;99.90;;;;;;5111487;28;20592;-74
2021/03/02 00:55:41;;;;;;;10.10;7.50;;;3.00;99.90;;;;;;5111376;28;20206;-74
2021/03/02 00:58:08;;;;;;;10.37;7.83;;;3.00;99.90;;;;;;5110209;28;20727;-74
2021/03/02 01:00:34;;;;;;;10.83;8.13;;;3.00;99.90;;;;;;5110802;28;20238;-74
2021/03/02 01:03:00;;;;;;;10.00;7.77;;;2.90;99.90;;;;;;5111160;28;20645;-74
2021/03/02 01:05:26;;;;;;;11.03;7.70;;;2.90;99.90;;;;;;5111281;28;20283;-74
2021/03/02 01:07:52;;;;;;;8.87;7.17;;;3.00;99.90;;;;;;5110978;28;20237;-74
2021/03/02 01:10:19;;;;;;;9.47;7.57;;;3.10;99.90;;;;;;5110835;28;20756;-74
2021/03/02 01:12:45;;;;;;;9.70;7.73;;;3.00;99.90;;;;;;5111049;28;20209;-74
2021/03/02 01:15:13;;;;;;;10.17;7.90;;;3.00;99.90;;;;;;5110960;28;20300;-74
2021/03/02 01:17:40;;;;;;;9.97;7.60;;;3.00;99.90;;;;;;5111000;28;20214;-74
2021/03/02 01:20:07;;;;;;;9.63;7.80;;;3.00;99.90;;;;;;5111014;28;20221;-74
2021/03/02 01:22:33;;;;;;;7.13;6.00;;;3.10;99.90;;;;;;5110653;28;20202;-74
2021/03/02 01:24:59;;;;;;;15.17;6.67;;;3.10;99.90;;;;;;5110847;28;20247;-74
2021/03/02 01:27:26;;;;;;;8.40;6.33;;;3.10;99.90;;;;;;5110725;28;20212;-74
2021/03/02 01:29:52;;;;;;;16.40;6.90;;;3.10;99.90;;;;;;5110272;28;20591;-74
2021/03/02 01:32:19;;;;;;;18.37;6.40;;;3.00;99.90;;;;;;5110735;28;20237;-75
2021/03/02 01:34:45;;;;;;;6.93;6.23;;;2.90;99.90;;;;;;5110643;28;20202;-74
2021/03/02 01:37:11;;;;;;;9.33;6.67;;;2.80;99.90;;;;;;5110586;28;20206;-75
2021/03/02 01:39:37;;;;;;;10.47;6.40;;;2.70;99.90;;;;;;5110461;28;20263;-74
2021/03/02 01:42:03;;;;;;;5.97;5.23;;;2.80;99.90;;;;;;5110656;28;20237;-74
2021/03/02 01:44:30;;;;;;;5.73;5.23;;;2.80;99.90;;;;;;5110378;28;20206;-74
2021/03/02 01:46:57;;;;;;;15.83;5.70;;;2.70;99.90;;;;;;5110199;28;20271;-74
2021/03/02 01:49:24;;;;;;;5.80;5.30;;;2.60;99.90;;;;;;5109941;28;20261;-74
2021/03/02 01:51:51;;;;;;;7.07;5.57;;;2.60;99.90;;;;;;5110221;28;20206;-74
2021/03/02 01:54:17;;;;;;;6.37;5.77;;;2.60;99.90;;;;;;5110184;28;20216;-74
2021/03/02 01:56:44;;;;;;;7.03;6.20;;;2.60;99.90;;;;;;5110034;28;20202;-74
2021/03/02 01:59:10;;;;;;;7.63;6.53;;;2.60;99.90;;;;;;5109737;28;20210;-74
2021/03/02 02:01:37;;;;;;;9.27;6.90;;;2.60;99.90;;;;;;5109996;28;20190;-74
2021/03/02 02:04:07;;;;;;;8.27;6.67;;;2.50;99.90;;;;;;5110056;28;20610;-74
2021/03/02 02:06:39;;;;;;;9.07;6.60;;;2.50;99.90;;;;;;5110011;28;20190;-74
2021/03/02 02:09:11;;;;;;;7.97;6.87;;;2.40;99.90;;;;;;5109787;28;20267;-74
2021/03/02 02:11:44;;;;;;;15.67;6.80;;;2.40;99.90;;;;;;5109807;28;20217;-74
2021/03/02 02:14:17;;;;;;;7.37;6.53;;;2.30;99.90;;;;;;5103770;28;20199;-74
2021/03/02 02:16:45;;;;;;;16.20;6.80;;;2.30;99.90;;;;;;5089456;28;20202;-74
2021/03/02 02:19:25;;;;;;;6.47;5.87;;;2.30;99.90;;;;;;5089438;28;20210;-74
2021/03/02 02:22:22;;;;;;;7.10;6.33;;;2.30;99.90;;;;;;5089537;28;20227;-74
2021/03/02 02:25:12;;;;;;;7.10;5.60;;;2.20;99.90;;;;;;5089391;28;20222;-74
2021/03/02 02:27:41;;;;;;;7.00;6.13;;;2.30;99.90;;;;;;5085697;28;20261;-74
2021/03/02 02:30:08;;;;;;;6.97;6.37;;;2.30;99.90;;;;;;5089331;28;20234;-74
2021/03/02 02:32:36;;;;;;;6.73;6.03;;;2.30;99.90;;;;;;5089168;28;20230;-74
2021/03/02 02:35:04;;;;;;;12.07;6.73;;;2.30;99.90;;;;;;5089152;28;20230;-74
2021/03/02 02:37:32;;;;;;;10.13;6.70;;;2.20;99.90;;;;;;5089136;28;20199;-74
2021/03/02 02:39:59;;;;;;;8.10;6.33;;;2.20;99.90;;;;;;5088763;28;20664;-74
2021/03/02 02:42:28;;;;;;;10.27;7.27;;;2.10;99.90;;;;;;5089218;28;20213;-74
2021/03/02 02:44:56;;;;;;;11.23;6.80;;;2.00;99.90;;;;;;5088673;28;20202;-74
2021/03/02 02:47:23;;;;;;;8.43;6.33;;;1.90;99.90;;;;;;5088725;28;20685;-74
2021/03/02 02:49:49;;;;;;;10.37;7.00;;;1.70;99.90;;;;;;5088635;28;20253;-74
2021/03/02 02:52:17;;;;;;;13.80;7.03;;;1.80;99.90;;;;;;5088855;28;20253;-74
2021/03/02 02:54:44;;;;;;;11.97;6.77;;;1.70;99.90;;;;;;5088763;28;20234;-74
2021/03/02 02:57:12;;;;;;;9.97;6.47;;;1.70;99.90;;;;;;5088713;28;20203;-74
2021/03/02 02:59:40;;;;;;;7.33;6.23;;;1.70;99.90;;;;;;5088282;28;20687;-74
2021/03/02 03:02:10;;;;;;;10.70;6.50;;;1.70;99.90;;;;;;5088821;28;20210;-74
2021/03/02 03:04:42;;;;;;;8.07;6.60;;;1.70;99.90;;;;;;5088817;28;20701;-74
2021/03/02 03:07:15;;;;;;;8.33;6.63;;;1.80;99.90;;;;;;5088931;28;20187;-74
2021/03/02 03:09:43;;;;;;;17.37;6.27;;;1.80;99.90;;;;;;5088088;28;20715;-74
2021/03/02 03:12:14;;;;;;;17.37;7.57;;;1.70;99.90;;;;;;5088773;28;20637;-74
2021/03/02 03:14:46;;;;;;;11.03;6.90;;;1.70;99.90;;;;;;5088480;28;20253;-74
2021/03/02 03:17:15;;;;;;;9.67;6.67;;;1.60;99.90;;;;;;5088544;28;20232;-74
2021/03/02 03:19:43;;;;;;;10.77;6.07;;;1.60;99.90;;;;;;5088039;28;20289;-74
2021/03/02 03:22:10;;;;;;;13.87;6.10;;;1.60;99.90;;;;;;5088487;28;20226;-74
2021/03/02 03:24:36;;;;;;;14.00;6.40;;;1.60;99.90;;;;;;5088409;28;20207;-74
2021/03/02 03:27:04;;;;;;;8.23;6.00;;;1.50;99.90;;;;;;5091019;28;20734;-74
2021/03/02 03:29:30;;;;;;;7.00;6.30;;;1.50;99.90;;;;;;5088351;28;20238;-74
2021/03/02 03:32:00;;;;;;;6.37;5.77;;;1.50;99.90;;;;;;5106076;28;20206;-74
2021/03/02 03:34:27;;;;;;;7.27;5.50;;;1.50;99.90;;;;;;5108733;28;20290;-74
2021/03/02 03:36:55;;;;;;;6.70;5.53;;;1.60;99.90;;;;;;5099747;28;20237;-74
2021/03/02 03:39:21;;;;;;;5.57;5.07;;;1.50;99.90;;;;;;5088479;28;20209;-74
2021/03/02 03:41:48;;;;;;;5.37;4.67;;;1.50;99.90;;;;;;5088445;28;20647;-74
2021/03/02 03:44:14;;;;;;;14.17;4.73;;;1.50;99.90;;;;;;5087978;28;20206;-74
2021/03/02 03:46:40;;;;;;;7.17;5.53;;;1.40;99.90;;;;;;5088252;28;20207;-74
2021/03/02 03:49:06;;;;;;;7.33;4.50;;;1.30;99.90;;;;;;5102305;28;20245;-74
2021/03/02 03:51:37;;;;;;;8.23;5.47;;;1.00;99.90;;;;;;5108734;28;20575;-73
2021/03/02 03:54:04;;;;;;;6.93;4.77;;;1.00;99.90;;;;;;5108459;28;20553;-74
2021/03/02 03:56:31;;;;;;;6.50;5.50;;;1.00;99.90;;;;;;5108400;28;20277;-74
2021/03/02 03:58:57;;;;;;;9.17;5.40;;;1.00;99.90;;;;;;5108054;28;20247;-73
2021/03/02 04:01:24;;;;;;;11.37;6.37;;;1.10;99.90;;;;;;5108569;28;20244;-73
2021/03/02 04:10:35;;;;;;;6.43;5.50;;;1.20;99.90;;;;;;5108004;28;20752;-74
2021/03/02 04:13:09;;;;;;;8.53;5.50;;;1.10;99.90;;;;;;5108046;28;20557;-74
2021/03/02 04:15:38;;;;;;;10.37;5.43;;;1.10;99.90;;;;;;5108241;28;20202;-74
2021/03/02 04:28:45;;;;;;;10.63;5.20;;;1.10;99.90;;;;;;5107917;28;20213;-74
2021/03/02 04:31:11;;;;;;;7.53;5.37;;;1.10;99.90;;;;;;5087660;28;20202;-73
2021/03/02 04:40:21;;;;;;;5.47;4.93;;;1.20;99.90;;;;;;5090991;28;20201;-74
2021/03/02 04:42:48;;;;;;;11.33;5.70;;;1.20;99.90;;;;;;5090905;28;20276;-74
2021/03/02 04:45:15;;;;;;;6.43;5.30;;;1.20;99.90;;;;;;5091276;28;20211;-74
2021/03/02 04:47:44;;;;;;;7.67;5.60;;;1.10;99.90;;;;;;5090816;28;20782;-74
2021/03/02 04:50:12;;;;;;;6.03;5.53;;;0.90;99.90;;;;;;5091119;28;20210;-74
2021/03/02 04:52:38;;;;;;;6.07;5.17;;;0.90;99.90;;;;;;5090953;28;20729;-74
2021/03/02 04:55:06;;;;;;;6.30;5.20;;;0.90;99.90;;;;;;5091104;28;20291;-74
2021/03/02 04:57:32;;;;;;;10.13;6.53;;;1.00;99.90;;;;;;5091074;28;20242;-74
2021/03/02 04:59:59;;;;;;;6.30;5.20;;;1.00;99.90;;;;;;5090636;28;20250;-74
2021/03/02 05:02:26;;;;;;;6.70;5.17;;;1.00;99.90;;;;;;5090767;28;20737;-74
2021/03/02 05:04:52;;;;;;;5.33;4.83;;;0.90;99.90;;;;;;5090490;28;20664;-74
2021/03/02 05:07:19;;;;;;;6.63;5.27;;;1.00;99.90;;;;;;5090804;28;20253;-73
2021/03/02 05:09:45;;;;;;;5.83;4.87;;;1.00;99.90;;;;;;5090639;28;20261;-74
2021/03/02 05:12:11;;;;;;;9.63;4.97;;;1.10;99.90;;;;;;5090717;28;20575;-74
2021/03/02 05:14:37;;;;;;;9.13;5.70;;;1.20;99.90;;;;;;5090637;28;20250;-74
2021/03/02 05:17:03;;;;;;;5.77;4.70;;;1.20;99.90;;;;;;5090436;28;20605;-74
2021/03/02 05:19:31;;;;;;;10.20;6.03;;;1.20;99.90;;;;;;5090543;28;20210;-74
2021/03/02 05:21:57;;;;;;;6.23;5.00;;;1.10;99.90;;;;;;5090421;28;20229;-74
2021/03/02 05:24:23;;;;;;;5.73;5.17;;;1.10;99.90;;;;;;5090245;28;20662;-74
2021/03/02 05:26:49;;;;;;;5.97;5.37;;;1.20;99.90;;;;;;5089894;28;20685;-74
2021/03/02 05:29:15;;;;;;;5.53;5.03;;;1.20;99.90;;;;;;5090312;28;20226;-74
2021/03/02 05:31:42;;;;;;;5.80;5.30;;;1.20;99.90;;;;;;5090506;28;20236;-74
2021/03/02 05:34:08;;;;;;;8.20;5.50;;;1.20;99.90;;;;;;5090099;28;20219;-74
2021/03/02 05:36:34;;;;;;;7.50;5.20;;;1.30;99.90;;;;;;5090106;28;20673;-74
2021/03/02 05:39:01;;;;;;;5.60;5.10;;;1.30;99.90;;;;;;5090163;28;20226;-74
2021/03/02 05:41:27;;;;;;;5.90;5.30;;;1.20;99.90;;;;;;5090150;28;20219;-74
2021/03/02 05:43:54;;;;;;;6.80;6.10;;;1.30;99.90;;;;;;5089609;28;20253;-74
2021/03/02 05:46:22;;;;;;;13.17;5.87;;;1.30;99.90;;;;;;5089967;28;20241;-74
2021/03/02 05:48:49;;;;;;;14.87;6.27;;;1.30;99.90;;;;;;5089866;28;20254;-74
2021/03/02 05:51:17;;;;;;;6.87;5.47;;;1.20;99.90;;;;;;5089928;28;20205;-74
2021/03/02 05:53:44;;;;;;;6.57;4.90;;;1.10;99.90;;;;;;5089722;28;20653;-74
2021/03/02 05:56:10;;;;;;;12.70;6.50;;;1.10;99.90;;;;;;5089931;28;20234;-74
2021/03/02 05:58:37;;;;;;;8.33;5.90;;;1.10;99.90;;;;;;5089716;28;20264;-74
2021/03/02 06:01:03;;;;;;;16.97;6.13;;;1.10;99.90;;;;;;5089276;28;20300;-74
2021/03/02 06:03:30;;;;;;;7.80;6.27;;;1.10;99.90;;;;;;5089856;28;20203;-74
2021/03/02 06:05:56;;;;;;;10.13;7.73;;;1.10;99.90;;;;;;5089677;28;20238;-74
2021/03/02 06:08:22;;;;;;;7.77;6.30;;;1.10;99.90;;;;;;5089563;28;20234;-74
2021/03/02 06:10:49;;;;;;;12.20;6.27;;;1.10;99.90;;;;;;5089628;28;20233;-75
2021/03/02 06:13:25;;;;;;;6.13;5.53;;;1.10;99.90;;;;;;5089601;28;20244;-73
2021/03/02 06:15:55;;;;;;;10.27;5.50;;;1.00;99.90;;;;;;5089501;28;20194;-74
2021/03/02 06:18:21;;;;;;;9.70;5.60;;;1.00;99.90;;;;;;5089409;28;20210;-74
2021/03/02 06:20:49;;;;;;;8.70;6.13;;;1.10;99.90;;;;;;5089610;28;20241;-74
2021/03/02 06:23:23;;;;;;;8.40;6.10;;;1.10;99.90;;;;;;5089548;28;20241;-74
2021/03/02 06:25:51;;;;;;;6.67;5.80;;;1.10;99.90;;;;;;5089312;28;20234;-74
2021/03/02 06:28:36;;;;;;;8.87;5.77;;;1.00;99.90;;;;;;5089318;28;20394;-74
2021/03/02 06:31:02;;;;;;;6.10;5.43;;;1.00;99.90;;;;;;5089110;28;20241;-74
2021/03/02 06:33:28;;;;;;;5.17;4.67;;;1.00;99.90;;;;;;5089178;28;20207;-74
2021/03/02 06:35:54;;;;;;;17.17;6.87;;;0.90;99.90;;;;;;5089133;28;20262;-74
2021/03/02 06:38:28;;;;;;;6.03;5.13;;;0.90;99.90;;;;;;5088821;28;20668;-74
2021/03/02 06:40:56;;;;;;;6.67;4.70;;;0.80;99.90;;;;;;5088656;28;20665;-74
2021/03/02 06:43:31;;;;;;;24.27;5.00;;;0.80;99.90;;;;;;5089108;28;20256;-74
2021/03/02 06:45:57;;;;;;;9.30;5.73;;;0.70;99.90;;;;;;5088775;28;20233;-74
2021/03/02 06:48:23;;;;;;;5.87;5.27;;;0.80;99.90;;;;;;5088760;28;20233;-74
2021/03/02 06:50:50;;;;;;;16.73;5.40;;;0.80;99.90;;;;;;5088788;28;20610;-74
2021/03/02 06:53:17;;;;;;;17.40;5.47;;;0.90;99.90;;;;;;5088861;28;20209;-74
2021/03/02 06:55:43;;;;;;;9.33;4.30;;;1.00;99.90;;;;;;5088135;28;20202;-73
2021/03/02 06:58:22;;;;;;;5.00;4.20;;;0.90;99.90;;;;;;5088805;28;20307;-74
2021/03/02 07:00:51;;;;;;;4.57;4.17;;;1.00;99.90;;;;;;5088162;28;20245;-73
2021/03/02 07:03:25;;;;;;;13.43;4.33;;;1.00;99.90;;;;;;5088633;28;20208;-74
2021/03/02 07:05:51;;;;;;;4.23;3.93;;;1.00;99.90;;;;;;5088192;28;20698;-74
2021/03/02 07:08:18;;;;;;;8.83;3.93;;;1.00;99.90;;;;;;5088648;28;20239;-75
2021/03/02 07:10:49;;;;;;;9.67;4.63;;;0.70;99.90;;;;;;5088766;28;20215;-74
2021/03/02 07:13:16;;;;;;;10.97;5.20;;;0.60;99.90;;;;;;5088389;28;20642;-74
2021/03/02 07:15:44;;;;;;;17.00;4.90;;;0.60;99.90;;;;;;5088376;28;20207;-74
2021/03/02 07:18:13;;;;;;;6.40;4.70;;;0.70;99.90;;;;;;5088376;28;20207;-74
2021/03/02 07:20:46;;;;;;;16.80;4.93;;;0.70;99.90;;;;;;5088623;28;20256;-74
2021/03/02 07:23:13;;;;;;;5.27;4.63;;;0.80;99.90;;;;;;5088428;28;20186;-74
2021/03/02 07:25:43;;;;;;;4.73;4.33;;;0.80;99.90;;;;;;5088053;28;20233;-74
2021/03/02 07:28:10;;;;;;;4.73;4.40;;;0.90;99.90;;;;;;5087944;28;20249;-74
2021/03/02 07:30:38;;;;;;;5.23;4.40;;;1.10;99.90;;;;;;5088406;28;20578;-74
2021/03/02 07:33:04;;;;;;;4.87;4.47;;;1.20;99.90;;;;;;5088442;28;20238;-74
2021/03/02 07:35:31;;;;;;;4.37;3.90;;;1.20;99.90;;;;;;5088400;28;20259;-74
2021/03/02 07:38:12;;;;;;;6.17;4.27;;;1.40;99.90;;;;;;5088386;28;20259;-74
2021/03/02 07:40:43;;;;;;;8.07;4.53;;;1.40;99.90;;;;;;5088557;28;20200;-74
2021/03/02 07:43:25;;;;;;;4.60;3.93;;;1.40;99.90;;;;;;5088186;28;20191;-74
2021/03/02 07:45:53;;;;;;;5.87;4.63;;;1.40;99.90;;;;;;5088006;28;20641;-74
2021/03/02 07:48:28;;;;;;;5.00;4.60;;;1.40;99.90;;;;;;5088208;28;20303;-74
2021/03/02 07:51:20;;;;;;;8.37;5.10;;;1.40;99.90;;;;;;5088075;28;20210;-74
2021/03/02 07:53:47;;;;;;;6.20;5.40;;;1.40;99.90;;;;;;5088097;28;20654;-74
2021/03/02 07:56:25;;;;;;;12.70;5.80;;;1.40;99.90;;;;;;5088254;28;20628;-74
2021/03/02 07:59:19;;;;;;;8.57;5.17;;;1.50;99.90;;;;;;5088130;28;20270;-74
2021/03/02 08:02:16;;;;;;;10.97;5.43;;;1.50;99.90;;;;;;5088234;28;20747;-74
2021/03/02 08:04:46;;;;;;;4.93;4.53;;;1.60;99.90;;;;;;5088188;28;20233;-74
2021/03/02 08:07:21;;;;;;;5.97;5.37;;;1.60;99.90;;;;;;5090665;28;20203;-74
2021/03/02 08:09:48;;;;;;;5.37;4.87;;;1.70;99.90;;;;;;5091903;28;20236;-75
2021/03/02 08:12:31;;;;;;;6.03;5.50;;;1.70;99.90;;;;;;5091606;28;20230;-74
2021/03/02 08:14:59;;;;;;;5.67;5.17;;;1.70;99.90;;;;;;5091420;28;20210;-74
2021/03/02 08:17:27;;;;;;;5.90;5.40;;;1.70;99.90;;;;;;5091866;28;20260;-74
2021/03/02 08:20:03;;;;;;;6.30;5.70;;;1.80;99.90;;;;;;5091833;28;20202;-74
2021/03/02 08:22:52;;;;;;;11.40;6.17;;;1.70;99.90;;;;;;5091662;28;20194;-74
2021/03/02 08:25:24;;;;;;;5.83;5.33;;;1.80;99.90;;;;;;5091639;28;20210;-74
2021/03/02 08:27:54;;;;;;;6.60;5.90;;;1.80;99.90;;;;;;5091972;28;20195;-74
2021/03/02 08:30:22;;;;;;;8.13;6.10;;;1.90;99.90;;;;;;5091690;28;20226;-75
2021/03/02 08:32:49;;;;;;;6.83;6.10;;;2.00;99.90;;;;;;5091755;28;20240;-74
2021/03/02 08:35:19;;;;;;;6.97;5.53;;;2.10;99.90;;;;;;5091221;28;20206;-74
2021/03/02 08:37:47;;;;;;;10.53;6.10;;;2.10;99.90;;;;;;5091444;28;20225;-75
2021/03/02 08:40:14;;;;;;;7.10;6.40;;;2.20;99.90;;;;;;5091468;28;20209;-75
2021/03/02 08:43:00;;;;;;;7.03;6.10;;;2.20;99.90;;;;;;5091226;28;20210;-74
2021/03/02 08:45:27;;;;;;;7.97;6.80;;;2.10;99.90;;;;;;5091318;28;20214;-74
2021/03/02 08:48:11;;;;;;;9.03;5.60;;;2.10;99.90;;;;;;5091226;28;20227;-74
2021/03/02 08:50:37;;;;;;;8.37;6.53;;;2.10;99.90;;;;;;5091236;28;20230;-74
2021/03/02 08:53:04;;;;;;;9.27;6.70;;;2.20;99.90;;;;;;5090987;28;20207;-74
2021/03/02 08:55:37;;;;;;;7.27;6.53;;;2.20;99.90;;;;;;5090751;28;20293;-74
2021/03/02 08:58:04;;;;;;;9.00;6.63;;;2.20;99.90;;;;;;5091121;28;20276;-74
2021/03/02 09:00:31;;;;;;;11.80;6.90;;;2.30;99.90;;;;;;5090565;28;20602;-74
2021/03/02 09:02:58;;;;;;;7.57;6.77;;;2.30;99.90;;;;;;5090764;28;20207;-74
2021/03/02 09:05:24;;;;;;;9.80;8.07;;;2.30;99.90;;;;;;5090743;28;20209;-74
2021/03/02 09:08:07;;;;;;;10.27;7.07;;;2.40;99.90;;;;;;5090886;28;20202;-74
2021/03/02 09:10:34;;;;;;;8.47;7.27;;;2.40;99.90;;;;;;5090878;28;20226;-74
2021/03/02 09:13:05;;;;;;;12.80;7.63;;;2.50;99.90;;;;;;5090624;28;20202;-74
2021/03/02 09:15:35;;;;;;;9.07;7.87;;;2.60;99.90;;;;;;5090900;28;20237;-74
2021/03/02 09:18:14;;;;;;;10.70;8.23;;;2.60;99.90;;;;;;5089952;28;20234;-74
2021/03/02 09:20:41;;;;;;;15.33;8.30;;;2.60;99.90;;;;;;5090553;28;20202;-74
2021/03/02 09:23:07;;;;;;;9.20;7.93;;;2.60;99.90;;;;;;5090414;28;20883;-74
2021/03/02 09:25:34;;;;;;;10.77;8.43;;;2.60;99.90;;;;;;5090449;28;20203;-75
2021/03/02 09:28:00;;;;;;;11.63;8.63;;;2.70;99.90;;;;;;5090295;28;20696;-74
2021/03/02 09:30:27;;;;;;;12.03;9.07;;;2.70;99.90;;;;;;5090167;28;20276;-74
2021/03/02 09:32:55;;;;;;;10.30;8.10;;;2.70;99.90;;;;;;5090027;28;20205;-75
2021/03/02 09:35:22;;;;;;;12.70;8.67;;;2.80;99.90;;;;;;5090244;28;20207;-75
2021/03/02 09:37:48;;;;;;;10.17;8.07;;;2.70;99.90;;;;;;5090394;28;20245;-74
2021/03/02 09:40:16;;;;;;;14.13;9.30;;;2.80;99.90;;;;;;5090081;28;20237;-74
2021/03/02 09:42:52;;;;;;;9.97;8.53;;;2.80;99.90;;;;;;5090149;28;20211;-74
2021/03/02 09:45:19;;;;;;;10.43;8.53;;;2.90;99.90;;;;;;5090007;28;20203;-74
2021/03/02 09:47:47;;;;;;;11.57;9.10;;;2.90;99.90;;;;;;5090046;28;20317;-75
2021/03/02 09:50:14;;;;;;;15.93;8.80;;;3.00;99.90;;;;;;5089860;28;20235;-74
2021/03/02 09:52:43;;;;;;;11.80;8.90;;;3.10;99.90;;;;;;5089490;28;20206;-75
2021/03/02 09:55:24;;;;;;;12.13;8.97;;;3.20;99.90;;;;;;5089916;28;20210;-74
2021/03/02 09:58:11;;;;;;;13.33;9.07;;;3.10;99.90;;;;;;5090055;28;20195;-74
2021/03/02 10:00:47;;;;;;;12.23;9.73;;;3.10;99.90;;;;;;5089405;28;20268;-75
2021/03/02 10:03:14;;;;;;;12.57;9.17;;;3.10;99.90;;;;;;5089813;28;20205;-74
2021/03/02 10:05:46;;;;;;;15.50;9.70;;;3.20;99.90;;;;;;5089894;28;20239;-74
2021/03/02 10:08:33;;;;;;;11.30;9.33;;;3.20;99.90;;;;;;5089633;28;20210;-74
2021/03/02 10:11:02;;;;;;;13.97;9.93;;;3.20;99.90;;;;;;5089549;28;20187;-74
2021/03/02 10:13:31;;;;;;;13.73;10.07;;;3.20;99.90;;;;;;5089778;28;20210;-74
2021/03/02 10:16:27;;;;;;;13.20;9.57;;;3.20;99.90;;;;;;5089342;28;20202;-74
2021/03/02 10:18:55;;;;;;;13.17;9.50;;;3.40;99.90;;;;;;5053848;28;20255;-75
2021/03/02 10:21:23;;;;;;;13.17;10.00;;;3.30;99.90;;;;;;5088922;28;20195;-75
2021/03/02 10:23:51;;;;;;;14.50;9.30;;;3.30;99.90;;;;;;5089134;28;20277;-75
2021/03/02 10:26:23;;;;;;;12.20;9.57;;;3.30;99.90;;;;;;5089313;28;20210;-75
2021/03/02 10:28:49;;;;;;;13.37;9.20;;;3.30;99.90;;;;;;5088945;28;20230;-75
2021/03/02 10:31:16;;;;;;;12.43;9.60;;;3.30;99.90;;;;;;5088382;28;20207;-75
2021/03/02 10:33:42;;;;;;;15.00;9.73;;;3.40;99.90;;;;;;5089164;28;20264;-75
2021/03/02 10:36:20;;;;;;;12.67;9.90;;;3.40;99.90;;;;;;5089042;28;20222;-75
2021/03/02 10:38:47;;;;;;;13.83;10.07;;;3.40;99.90;;;;;;5089259;28;20209;-74
2021/03/02 10:41:14;;;;;;;13.33;9.87;;;3.40;99.90;;;;;;5089056;28;20214;-74
2021/03/02 10:43:40;;;;;;;15.23;10.20;;;3.40;99.90;;;;;;5088997;28;20207;-75
2021/03/02 10:46:06;;;;;;;15.13;10.83;;;3.40;99.90;;;;;;5088400;28;20222;-75
2021/03/02 10:48:32;;;;;;;12.33;10.27;;;3.50;99.90;;;;;;5088985;28;20282;-74
2021/03/02 10:50:58;;;;;;;14.00;9.80;;;3.50;99.90;;;;;;5089237;28;20256;-74
2021/03/02 10:53:24;;;;;;;12.80;10.30;;;3.60;99.90;;;;;;5088618;28;20676;-74
2021/03/02 10:55:52;;;;;;;13.33;9.90;;;3.60;99.90;;;;;;5088844;28;20217;-75
2021/03/02 10:58:19;;;;;;;14.37;10.27;;;3.70;99.90;;;;;;5088733;28;20210;-74
2021/03/02 11:00:45;;;;;;;12.33;10.17;;;3.70;99.90;;;;;;5088344;28;20520;-75
2021/03/02 11:03:11;;;;;;;14.50;10.10;;;3.80;99.90;;;;;;5088336;28;20214;-75
2021/03/02 11:05:37;;;;;;;50.77;13.07;;;3.90;99.90;;;;;;5088718;28;20203;-75
2021/03/02 11:08:04;;;;;;;22.90;11.13;;;4.00;99.90;;;;;;5088780;28;20631;-75
2021/03/02 11:10:30;;;;;;;14.73;9.80;;;4.00;99.90;;;;;;5088436;28;20238;-75
2021/03/02 11:12:56;;;;;;;12.17;10.13;;;4.20;99.90;;;;;;5088680;28;20210;-75
2021/03/02 11:15:23;;;;;;;14.80;10.23;;;4.30;99.90;;;;;;5088426;28;20208;-75
2021/03/02 11:17:50;;;;;;;13.27;10.50;;;4.40;99.90;;;;;;5088654;28;20229;-75
2021/03/02 11:20:17;;;;;;;13.20;10.17;;;4.60;99.90;;;;;;5088436;28;20249;-75
2021/03/02 11:22:43;;;;;;;12.50;10.10;;;4.60;99.90;;;;;;5088599;28;20242;-75
2021/03/02 11:25:16;;;;;;;11.77;10.17;;;4.80;99.90;;;;;;5088360;28;20665;-75
2021/03/02 11:27:43;;;;;;;13.70;10.17;;;5.10;99.90;;;;;;5088459;28;20191;-75
2021/03/02 11:30:10;;;;;;;12.47;10.13;;;5.40;99.90;;;;;;5088070;28;20739;-75
2021/03/02 11:32:37;;;;;;;12.60;9.97;;;5.60;99.90;;;;;;5088522;28;20232;-75
2021/03/02 11:35:04;;;;;;;11.00;9.40;;;5.70;99.90;;;;;;5088049;28;20695;-75
2021/03/02 11:37:30;;;;;;;11.70;10.17;;;5.90;99.90;;;;;;5088244;28;20692;-75
2021/03/02 11:39:56;;;;;;;11.77;9.40;;;6.00;99.90;;;;;;5088457;28;20245;-75
2021/03/02 11:42:22;;;;;;;11.23;9.43;;;6.10;99.90;;;;;;5091199;28;20206;-74
2021/03/02 11:44:48;;;;;;;10.83;9.00;;;6.10;99.90;;;;;;5092319;28;20215;-75
2021/03/02 11:47:15;;;;;;;10.43;9.10;;;6.20;99.90;;;;;;5091891;28;20928;-75
2021/03/02 11:49:42;;;;;;;12.57;9.20;;;6.30;99.90;;;;;;5092117;28;20226;-75
2021/03/02 11:52:08;;;;;;;10.00;8.90;;;6.50;99.90;;;;;;5092208;28;20206;-76
2021/03/02 11:54:34;;;;;;;11.03;9.83;;;6.60;99.90;;;;;;5092324;28;20289;-75
2021/03/02 11:57:01;;;;;;;14.80;10.33;;;6.70;99.90;;;;;;5092093;28;20211;-76
2021/03/02 11:59:27;;;;;;;11.97;10.23;;;6.90;99.90;;;;;;5091819;28;20303;-76
2021/03/02 12:01:54;;;;;;;11.73;9.93;;;7.00;99.90;;;;;;5092113;28;20229;-75
2021/03/02 12:04:20;;;;;;;12.33;10.50;;;7.10;99.90;;;;;;5091581;28;20707;-77
2021/03/02 12:06:48;;;;;;;13.30;10.60;;;7.20;99.90;;;;;;5092068;28;20207;-77
2021/03/02 12:09:14;;;;;;;14.90;10.43;;;7.30;99.90;;;;;;5091400;28;20317;-76
2021/03/02 12:11:41;;;;;;;12.10;10.80;;;7.40;99.90;;;;;;5091650;28;20252;-75
2021/03/02 12:14:07;;;;;;;11.67;10.47;;;7.60;99.90;;;;;;5091845;28;20203;-76
2021/03/02 12:16:34;;;;;;;11.80;10.57;;;7.80;99.90;;;;;;5091918;28;20211;-76
2021/03/02 12:19:00;;;;;;;13.20;10.57;;;8.00;99.90;;;;;;5091847;28;20217;-77
2021/03/02 12:21:26;;;;;;;13.13;10.80;;;8.20;99.90;;;;;;5091331;28;20567;-76
2021/03/02 12:23:54;;;;;;;12.13;10.37;;;8.20;99.90;;;;;;5091610;28;20214;-76
2021/03/02 12:26:20;;;;;;;11.27;10.17;;;8.40;99.90;;;;;;5091567;28;20234;-76
2021/03/02 12:28:47;;;;;;;16.33;11.70;;;8.60;99.90;;;;;;5091797;28;20237;-74
2021/03/02 12:31:14;;;;;;;11.67;10.43;;;8.70;99.90;;;;;;5091440;28;20199;-74
2021/03/02 12:33:40;;;;;;;13.97;10.97;;;8.80;99.90;;;;;;5091559;28;20210;-74
2021/03/02 12:36:08;;;;;;;12.47;11.17;;;9.10;99.90;;;;;;5091498;28;20206;-74
2021/03/02 12:38:34;;;;;;;13.53;11.73;;;9.20;99.90;;;;;;5091642;28;21093;-74
2021/03/02 12:41:01;;;;;;;14.20;12.13;;;9.20;99.90;;;;;;5091172;28;20203;-74
2021/03/02 12:43:28;;;;;;;14.43;12.07;;;9.30;99.90;;;;;;5091223;28;20213;-74
2021/03/02 12:45:55;;;;;;;16.20;12.37;;;9.50;99.90;;;;;;5090764;28;20676;-75
2021/03/02 12:48:21;;;;;;;14.93;11.80;;;9.70;99.90;;;;;;5090958;28;20217;-75
2021/03/02 12:50:48;;;;;;;15.10;12.37;;;9.80;99.90;;;;;;5091171;28;20226;-75
2021/03/02 12:53:16;;;;;;;16.23;11.70;;;9.90;99.90;;;;;;5089486;28;20852;-75
2021/03/02 12:55:43;;;;;;;21.07;13.00;;;10.00;99.90;;;;;;5091044;28;20337;-75
2021/03/02 12:58:10;;;;;;;16.23;12.33;;;10.10;99.90;;;;;;5090580;28;20214;-75
2021/03/02 13:00:37;;;;;;;14.53;12.27;;;10.30;99.90;;;;;;5090645;28;20250;-75
2021/03/02 13:03:04;;;;;;;16.07;11.97;;;10.30;99.90;;;;;;5090976;28;20250;-75
2021/03/02 13:05:31;;;;;;;14.33;12.03;;;10.60;99.90;;;;;;5090928;28;20215;-75
2021/03/02 13:07:58;;;;;;;16.73;13.10;;;10.80;99.90;;;;;;5090370;28;20207;-75
2021/03/02 13:10:25;;;;;;;17.47;12.70;;;11.20;99.90;;;;;;5090518;28;20602;-75
2021/03/02 13:12:52;;;;;;;14.37;11.93;;;11.30;99.90;;;;;;5090746;28;20203;-76
2021/03/02 13:15:20;;;;;;;15.17;11.97;;;11.50;99.90;;;;;;5090445;28;20213;-75
2021/03/02 13:17:47;;;;;;;15.83;12.77;;;11.60;99.90;;;;;;5090833;28;20203;-75
2021/03/02 13:20:14;;;;;;;15.97;12.83;;;11.60;99.90;;;;;;5090398;28;20203;-75
2021/03/02 13:22:41;;;;;;;16.80;12.50;;;11.70;99.90;;;;;;5090554;28;20235;-75